createdAt,value
2019-03-28T00:01:18.036Z,9.83
2019-03-28T00:06:31.516Z,7.20
2019-03-28T00:09:00.770Z,8.90
2019-03-28T00:11:30.061Z,7.07
2019-03-28T00:14:09.750Z,11.00
2019-03-28T00:16:41.581Z,9.03
2019-03-28T00:19:12.317Z,9.30
2019-03-28T00:22:05.443Z,7.33
2019-03-28T00:24:36.541Z,8.80
2019-03-28T00:27:05.865Z,5.83
2019-03-28T00:29:35.108Z,10.07
2019-03-28T00:32:13.576Z,6.67
2019-03-28T00:34:42.791Z,9.67
2019-03-28T00:37:12.072Z,12.13
2019-03-28T00:39:44.311Z,7.73
2019-03-28T00:44:57.772Z,10.13
2019-03-28T00:47:27.096Z,9.53
2019-03-28T00:49:59.306Z,11.53
2019-03-28T00:52:37.598Z,8.83
2019-03-28T00:55:06.845Z,10.33
2019-03-28T00:57:36.090Z,9.53
2019-03-28T01:00:06.173Z,9.67
2019-03-28T01:02:44.580Z,8.60
2019-03-28T01:05:13.874Z,11.13
2019-03-28T01:07:43.099Z,10.93
2019-03-28T01:10:15.380Z,10.73
2019-03-28T01:12:54.074Z,8.37
2019-03-28T01:15:23.348Z,11.40
2019-03-28T01:17:52.649Z,9.30
2019-03-28T01:20:21.848Z,9.67
2019-03-28T01:23:00.492Z,10.90
2019-03-28T01:25:29.705Z,11.77
2019-03-28T01:27:59.240Z,6.87
2019-03-28T01:30:28.465Z,10.07
2019-03-28T01:33:07.085Z,10.80
2019-03-28T01:35:36.279Z,10.67
2019-03-28T01:38:05.582Z,8.70
2019-03-28T01:40:37.832Z,9.00
2019-03-28T01:45:51.501Z,10.37
2019-03-28T01:48:20.712Z,9.27
2019-03-28T01:50:49.887Z,8.57
2019-03-28T01:53:28.547Z,12.13
2019-03-28T01:55:57.748Z,8.57
2019-03-28T01:58:29.115Z,11.23
2019-03-28T02:00:58.653Z,13.47
2019-03-28T02:03:37.192Z,11.13
2019-03-28T02:06:06.497Z,9.70
2019-03-28T02:08:35.780Z,8.27
2019-03-28T02:11:05.144Z,8.33
2019-03-28T02:13:43.667Z,9.50
2019-03-28T02:16:12.888Z,8.80
2019-03-28T02:18:42.177Z,12.60
2019-03-28T02:21:14.168Z,10.10
2019-03-28T02:23:52.348Z,11.27
2019-03-28T02:26:21.611Z,15.73
2019-03-28T02:28:50.828Z,12.73
2019-03-28T02:31:20.125Z,11.73
2019-03-28T02:33:58.660Z,10.77
2019-03-28T02:36:27.868Z,12.67
2019-03-28T02:38:57.111Z,10.07
2019-03-28T02:41:26.710Z,9.43
2019-03-28T02:46:40.480Z,13.17
2019-03-28T02:49:10.002Z,11.00
2019-03-28T02:51:41.680Z,12.30
2019-03-28T02:54:21.251Z,12.00
2019-03-28T02:56:50.732Z,11.93
2019-03-28T02:59:20.310Z,11.23
2019-03-28T03:01:49.767Z,11.77
2019-03-28T03:04:28.104Z,12.90
2019-03-28T03:07:00.681Z,9.73
2019-03-28T03:09:29.937Z,10.57
2019-03-28T03:11:59.154Z,11.80
2019-03-28T03:14:37.813Z,11.50
2019-03-28T03:17:07.145Z,12.80
2019-03-28T03:19:36.394Z,8.80
2019-03-28T03:22:05.580Z,10.10
2019-03-28T03:24:43.905Z,8.77
2019-03-28T03:27:13.253Z,8.73
2019-03-28T03:29:42.500Z,12.43
2019-03-28T03:32:13.270Z,8.37
2019-03-28T03:34:53.454Z,9.10
2019-03-28T03:37:22.762Z,7.63
2019-03-28T03:39:51.974Z,10.07
2019-03-28T03:42:21.217Z,9.13
2019-03-28T03:44:59.801Z,9.27
2019-03-28T03:47:29.033Z,11.23
2019-03-28T03:49:58.229Z,9.93
2019-03-28T03:52:30.533Z,9.00
2019-03-28T03:57:44.757Z,9.53
2019-03-28T04:00:17.309Z,9.23
2019-03-28T04:02:46.604Z,14.80
2019-03-28T04:05:24.768Z,10.47
2019-03-28T04:07:55.964Z,12.03
2019-03-28T04:10:26.186Z,8.53
2019-03-28T04:12:58.308Z,8.93
2019-03-28T04:15:41.474Z,10.50
2019-03-28T04:18:11.095Z,8.83
2019-03-28T04:20:42.479Z,7.77
2019-03-28T04:23:11.838Z,9.23
2019-03-28T04:25:50.343Z,8.20
2019-03-28T04:28:31.454Z,10.40
2019-03-28T04:30:52.726Z,7.90
2019-03-28T04:33:22.224Z,9.93
2019-03-28T04:38:35.833Z,10.00
2019-03-28T04:41:05.165Z,8.00
2019-03-28T04:43:36.225Z,10.10
2019-03-28T04:48:52.457Z,6.93
2019-03-28T04:51:22.045Z,9.60
2019-03-28T04:53:51.228Z,10.87
2019-03-28T04:56:29.434Z,7.97
2019-03-28T04:58:59.215Z,9.83
2019-03-28T05:01:28.445Z,12.43
2019-03-28T05:03:58.010Z,9.70
2019-03-28T05:06:37.962Z,10.53
2019-03-28T05:09:07.443Z,8.93
2019-03-28T05:11:36.946Z,7.50
2019-03-28T05:14:06.257Z,11.97
2019-03-28T05:19:21.573Z,9.63
2019-03-28T05:21:51.084Z,9.50
2019-03-28T05:24:20.326Z,8.40
2019-03-28T05:26:58.817Z,7.90
2019-03-28T05:29:28.023Z,7.47
2019-03-28T05:31:57.258Z,8.63
2019-03-28T05:34:26.455Z,12.10
2019-03-28T05:37:05.559Z,9.10
2019-03-28T05:39:36.325Z,13.20
2019-03-28T05:42:05.566Z,8.77
2019-03-28T05:44:34.812Z,9.37
2019-03-28T05:49:51.987Z,10.17
2019-03-28T05:52:21.473Z,9.20
2019-03-28T05:54:51.946Z,10.57
2019-03-28T05:57:22.542Z,12.27
2019-03-28T05:59:52.287Z,8.50
2019-03-28T06:02:30.709Z,11.13
2019-03-28T06:05:00.508Z,9.53
2019-03-28T06:07:57.846Z,7.57
2019-03-28T06:10:34.724Z,9.37
2019-03-28T06:13:16.388Z,11.37
2019-03-28T06:15:45.655Z,13.03
2019-03-28T06:18:14.959Z,10.10
2019-03-28T06:21:51.962Z,14.00
2019-03-28T06:27:11.937Z,6.90
2019-03-28T06:29:43.814Z,12.23
2019-03-28T06:32:13.053Z,11.37
2019-03-28T06:34:42.466Z,9.20
2019-03-28T06:37:21.444Z,11.53
2019-03-28T06:39:50.849Z,11.03
2019-03-28T06:42:44.333Z,9.87
2019-03-28T06:45:34.875Z,16.07
2019-03-28T06:48:07.449Z,10.90
2019-03-28T06:50:36.890Z,9.90
2019-03-28T06:53:06.180Z,10.60
2019-03-28T06:55:44.406Z,9.30
2019-03-28T06:58:14.008Z,12.23
2019-03-28T07:00:43.262Z,10.17
2019-03-28T07:03:12.977Z,11.90
2019-03-28T07:05:51.997Z,8.30
2019-03-28T07:08:22.578Z,7.20
2019-03-28T07:10:52.295Z,6.77
2019-03-28T07:13:22.096Z,5.87
2019-03-28T07:16:00.575Z,9.37
2019-03-28T07:18:29.859Z,10.83
2019-03-28T07:20:59.132Z,8.57
2019-03-28T07:23:28.694Z,10.20
2019-03-28T07:26:06.976Z,12.67
2019-03-28T07:28:36.450Z,9.50
2019-03-28T07:31:05.849Z,11.20
2019-03-28T07:33:35.417Z,11.20
2019-03-28T07:36:17.979Z,7.03
2019-03-28T07:38:49.290Z,7.40
2019-03-28T07:41:20.165Z,11.37
2019-03-28T07:43:51.526Z,15.07
2019-03-28T07:49:05.885Z,11.27
2019-03-28T07:51:37.922Z,7.57
2019-03-28T07:54:07.488Z,7.03
2019-03-28T07:56:46.194Z,11.40
2019-03-28T07:59:15.818Z,8.33
2019-03-28T08:01:59.333Z,7.63
2019-03-28T08:04:39.400Z,8.03
2019-03-28T08:11:03.770Z,14.47
2019-03-28T08:13:33.291Z,10.07
2019-03-28T08:16:14.358Z,9.07
2019-03-28T08:18:43.646Z,8.43
2019-03-28T08:21:13.135Z,8.70
2019-03-28T08:23:46.750Z,10.77
2019-03-28T08:26:30.071Z,10.57
2019-03-28T08:28:59.777Z,8.43
2019-03-28T08:31:29.092Z,9.93
2019-03-28T08:34:02.139Z,8.50
2019-03-28T08:39:38.279Z,8.93
2019-03-28T08:42:12.749Z,7.90
2019-03-28T08:44:44.416Z,8.13
2019-03-28T08:49:58.810Z,14.93
2019-03-28T08:52:28.427Z,9.27
2019-03-28T08:55:00.596Z,8.37
2019-03-28T08:57:40.292Z,10.67
2019-03-28T09:00:11.302Z,9.53
2019-03-28T09:02:43.321Z,13.53
2019-03-28T09:05:23.960Z,13.90
2019-03-28T09:08:32.076Z,10.90
2019-03-28T09:14:04.385Z,11.13
2019-03-28T09:17:03.503Z,8.83
2019-03-28T09:19:35.214Z,12.53
2019-03-28T09:22:04.837Z,9.17
2019-03-28T09:24:38.780Z,10.17
2019-03-28T09:27:17.028Z,13.33
2019-03-28T09:29:46.524Z,9.93
2019-03-28T09:32:15.866Z,14.13
2019-03-28T09:34:45.113Z,11.03
2019-03-28T09:37:25.574Z,9.47
2019-03-28T09:39:56.382Z,12.50
2019-03-28T09:42:29.086Z,13.63
2019-03-28T09:44:58.598Z,12.13
2019-03-28T09:47:41.675Z,10.47
2019-03-28T09:50:12.630Z,7.43
2019-03-28T09:52:41.830Z,7.20
2019-03-28T09:55:12.153Z,7.13
2019-03-28T09:57:56.308Z,8.10
2019-03-28T10:00:32.567Z,7.70
2019-03-28T10:03:00.681Z,6.10
2019-03-28T10:05:30.531Z,8.97
2019-03-28T10:08:11.148Z,7.03
2019-03-28T10:10:41.187Z,7.30
2019-03-28T10:13:11.198Z,6.33
2019-03-28T10:15:43.910Z,9.70
2019-03-28T10:20:58.630Z,7.90
2019-03-28T10:23:31.019Z,7.63
2019-03-28T10:26:00.762Z,6.27
2019-03-28T10:31:19.635Z,8.00
2019-03-28T10:34:20.783Z,9.73
2019-03-28T10:36:59.029Z,7.83
2019-03-28T10:39:28.377Z,7.13
2019-03-28T10:41:57.950Z,6.23
2019-03-28T10:44:31.106Z,7.17
2019-03-28T10:47:14.896Z,6.73
2019-03-28T10:49:44.285Z,6.83
2019-03-28T10:52:14.230Z,6.10
2019-03-28T10:54:43.562Z,8.60
2019-03-28T10:57:30.319Z,6.83
2019-03-28T11:00:01.601Z,7.13
2019-03-28T11:02:38.764Z,5.73
2019-03-28T11:05:07.537Z,6.07
2019-03-28T11:07:36.859Z,4.70
2019-03-28T11:10:08.942Z,5.30
2019-03-28T11:12:38.513Z,6.60
2019-03-28T11:15:07.802Z,4.73
2019-03-28T11:17:46.091Z,6.13
2019-03-28T11:20:15.452Z,5.33
2019-03-28T11:22:44.804Z,4.43
2019-03-28T11:25:20.436Z,4.53
2019-03-28T11:28:17.979Z,5.87
2019-03-28T11:30:51.520Z,3.13
2019-03-28T11:33:23.510Z,2.57
2019-03-28T11:35:52.833Z,1.90
2019-03-28T11:38:35.055Z,2.07
2019-03-28T11:41:43.696Z,2.80
2019-03-28T11:44:20.862Z,2.83
2019-03-28T11:46:50.733Z,4.03
2019-03-28T11:49:29.234Z,6.60
2019-03-28T11:51:58.572Z,3.90
2019-03-28T11:54:27.846Z,3.33
2019-03-28T11:56:57.110Z,3.47
2019-03-28T11:59:35.649Z,5.13
2019-03-28T12:02:19.318Z,4.43
2019-03-28T12:04:38.791Z,4.90
2019-03-28T12:07:08.325Z,2.77
2019-03-28T12:09:48.735Z,2.20
2019-03-28T12:12:20.015Z,4.23
2019-03-28T12:14:50.011Z,4.57
2019-03-28T12:17:19.367Z,3.07
2019-03-28T12:19:50.169Z,5.60
2019-03-28T12:22:24.568Z,5.50
2019-03-28T12:25:31.330Z,4.00
2019-03-28T12:27:44.186Z,3.50
2019-03-28T12:30:16.068Z,4.27
2019-03-28T12:32:44.676Z,3.63
2019-03-28T12:35:14.022Z,4.87
2019-03-28T12:37:54.488Z,4.80
2019-03-28T12:40:24.091Z,3.90
2019-03-28T12:42:53.713Z,3.53
2019-03-28T12:45:23.048Z,4.77
2019-03-28T12:48:06.923Z,3.53
2019-03-28T12:50:36.269Z,4.07
2019-03-28T12:53:08.695Z,3.67
2019-03-28T12:55:38.152Z,4.23
2019-03-28T12:58:17.141Z,4.20
2019-03-28T13:00:46.573Z,3.43
2019-03-28T13:03:16.207Z,3.73
2019-03-28T13:05:45.894Z,4.33
2019-03-28T13:08:26.115Z,2.87
2019-03-28T13:10:56.806Z,3.23
2019-03-28T13:13:26.414Z,3.83
2019-03-28T13:15:57.599Z,3.50
2019-03-28T13:18:36.482Z,3.87
2019-03-28T13:21:13.502Z,4.97
2019-03-28T13:23:37.404Z,2.77
2019-03-28T13:26:07.052Z,7.00
2019-03-28T13:28:48.349Z,6.10
2019-03-28T13:31:18.123Z,4.13
2019-03-28T13:33:49.413Z,4.57
2019-03-28T13:36:19.335Z,4.47
2019-03-28T13:38:57.700Z,5.43
2019-03-28T13:41:30.187Z,5.00
2019-03-28T13:43:59.479Z,4.57
2019-03-28T13:46:29.632Z,4.37
2019-03-28T13:49:14.034Z,5.07
2019-03-28T13:51:43.814Z,3.33
2019-03-28T13:54:13.261Z,2.90
2019-03-28T13:56:43.274Z,3.53
2019-03-28T13:59:21.574Z,3.33
2019-03-28T14:01:50.971Z,4.40
2019-03-28T14:04:20.347Z,4.03
2019-03-28T14:06:49.773Z,4.37
2019-03-28T14:09:28.994Z,3.33
2019-03-28T14:11:59.009Z,5.83
2019-03-28T14:14:28.665Z,4.00
2019-03-28T14:17:01.299Z,4.73
2019-03-28T14:19:41.605Z,3.67
2019-03-28T14:22:19.644Z,4.13
2019-03-28T14:24:49.265Z,5.70
2019-03-28T14:27:20.916Z,4.00
2019-03-28T14:30:11.657Z,4.70
2019-03-28T14:32:52.449Z,3.83
2019-03-28T14:35:13.582Z,5.07
2019-03-28T14:37:42.956Z,4.03
2019-03-28T14:40:21.426Z,3.63
2019-03-28T14:42:53.803Z,5.70
2019-03-28T14:45:23.136Z,7.43
2019-03-28T14:47:52.769Z,5.17
2019-03-28T14:53:14.181Z,4.63
2019-03-28T14:58:41.633Z,5.20
2019-03-28T15:01:43.960Z,5.23
2019-03-28T15:04:18.614Z,7.13
2019-03-28T15:09:54.105Z,6.77
2019-03-28T15:12:24.095Z,6.23
2019-03-28T15:14:53.375Z,3.60
2019-03-28T15:17:24.818Z,4.07
2019-03-28T15:19:55.944Z,5.20
2019-03-28T15:22:29.734Z,5.20
2019-03-28T15:25:04.501Z,4.60
2019-03-28T15:27:35.350Z,4.43
2019-03-28T15:30:05.440Z,5.70
2019-03-28T15:32:34.892Z,4.40
2019-03-28T15:35:06.529Z,3.97
2019-03-28T15:37:45.186Z,5.93
2019-03-28T15:40:59.702Z,4.43
2019-03-28T15:43:31.779Z,4.40
2019-03-28T15:46:14.010Z,6.50
2019-03-28T15:48:43.492Z,4.17
2019-03-28T15:51:14.995Z,4.43
2019-03-28T15:53:44.395Z,5.23
2019-03-28T15:56:23.138Z,5.40
2019-03-28T15:58:52.430Z,7.10
2019-03-28T16:01:21.743Z,4.60
2019-03-28T16:03:53.323Z,6.93
2019-03-28T16:08:01.040Z,4.43
2019-03-28T16:09:51.692Z,9.10
2019-03-28T16:12:41.421Z,3.93
2019-03-28T16:17:57.466Z,4.37
2019-03-28T16:20:25.546Z,7.70
2019-03-28T16:22:54.879Z,4.77
2019-03-28T16:26:18.028Z,8.23
2019-03-28T16:28:59.136Z,5.37
2019-03-28T16:31:31.512Z,3.63
2019-03-28T16:34:07.297Z,5.60
2019-03-28T16:36:33.146Z,5.50
2019-03-28T16:39:03.980Z,3.90
2019-03-28T16:41:44.838Z,4.20
2019-03-28T16:44:16.437Z,4.97
2019-03-28T16:46:45.377Z,4.57
2019-03-28T16:49:14.630Z,5.97
2019-03-28T16:54:27.951Z,8.07
2019-03-28T16:56:59.526Z,4.03
2019-03-28T16:59:28.805Z,5.53
2019-03-28T17:01:58.609Z,4.40
2019-03-28T17:17:59.358Z,4.23
2019-03-28T17:21:01.266Z,4.33
2019-03-28T17:23:22.518Z,4.30
2019-03-28T17:25:53.468Z,7.13
2019-03-28T17:28:22.825Z,4.27
2019-03-28T17:31:01.499Z,5.07
2019-03-28T17:33:31.921Z,4.37
2019-03-28T17:36:02.978Z,5.50
2019-03-28T17:38:39.215Z,5.43
2019-03-28T17:41:15.182Z,10.37
2019-03-28T17:43:51.188Z,4.90
2019-03-28T17:46:38.355Z,5.70
2019-03-28T17:49:07.775Z,6.40
2019-03-28T17:51:46.641Z,4.50
2019-03-28T17:54:16.012Z,8.67
2019-03-28T17:56:45.322Z,4.97
2019-03-28T17:59:14.881Z,6.40
2019-03-28T18:01:53.493Z,6.97
2019-03-28T18:04:23.469Z,5.47
2019-03-28T18:06:53.053Z,4.90
2019-03-28T18:09:22.643Z,5.13
2019-03-28T18:12:04.919Z,5.47
2019-03-28T18:14:47.665Z,4.43
2019-03-28T18:17:08.169Z,5.30
2019-03-28T18:19:37.477Z,6.00
2019-03-28T18:24:52.991Z,5.40
2019-03-28T18:27:22.377Z,7.57
2019-03-28T18:29:52.170Z,4.70
2019-03-28T18:32:39.261Z,7.03
2019-03-28T18:35:07.991Z,6.17
2019-03-28T18:43:54.210Z,4.77
2019-03-28T18:46:30.854Z,4.53
2019-03-28T18:58:31.787Z,6.27
2019-03-28T19:04:51.479Z,4.87
2019-03-28T19:07:23.412Z,8.63
2019-03-28T19:09:55.285Z,5.73
2019-03-28T19:12:36.941Z,5.20
2019-03-28T19:15:07.280Z,6.13
2019-03-28T19:17:36.645Z,5.67
2019-03-28T19:20:07.224Z,5.27
2019-03-28T19:22:46.060Z,5.63
2019-03-28T19:25:15.506Z,6.07
2019-03-28T19:27:48.239Z,5.33
2019-03-28T19:30:27.335Z,7.53
2019-03-28T19:33:08.626Z,5.40
2019-03-28T19:35:38.146Z,6.77
2019-03-28T19:38:09.220Z,5.63
2019-03-28T19:40:38.820Z,5.33
2019-03-28T19:45:52.196Z,5.90
2019-03-28T19:48:21.513Z,8.50
2019-03-28T19:50:54.227Z,6.50
2019-03-28T19:53:35.270Z,6.77
2019-03-28T19:56:05.841Z,4.93
2019-03-28T19:58:37.832Z,5.63
2019-03-28T20:01:07.166Z,5.73
2019-03-28T20:03:47.039Z,5.67
2019-03-28T20:06:22.054Z,4.37
2019-03-28T20:08:48.354Z,4.77
2019-03-28T20:11:18.132Z,5.37
2019-03-28T20:14:00.400Z,4.57
2019-03-28T20:16:30.118Z,5.47
2019-03-28T20:18:59.526Z,11.90
2019-03-28T20:21:28.852Z,5.63
2019-03-28T20:26:44.685Z,5.30
2019-03-28T20:29:14.499Z,6.10
2019-03-28T20:31:44.173Z,6.50
2019-03-28T20:34:16.701Z,8.40
2019-03-28T20:36:46.073Z,6.27
2019-03-28T20:39:15.739Z,4.90
2019-03-28T20:41:45.127Z,5.97
2019-03-28T20:44:15.170Z,5.50
2019-03-28T20:46:44.911Z,6.33
2019-03-28T20:49:15.020Z,5.03
2019-03-28T20:51:44.270Z,6.73
2019-03-28T20:54:22.960Z,5.90
2019-03-28T20:56:52.504Z,6.00
2019-03-28T20:59:21.969Z,6.43
2019-03-28T21:01:51.377Z,6.63
2019-03-28T21:04:31.687Z,5.40
2019-03-28T21:07:00.977Z,8.70
2019-03-28T21:09:30.700Z,5.70
2019-03-28T21:12:00.327Z,5.87
2019-03-28T21:14:38.722Z,5.23
2019-03-28T21:17:08.060Z,8.67
2019-03-28T21:19:37.424Z,6.70
2019-03-28T21:22:07.050Z,6.73
2019-03-28T21:24:36.320Z,8.07
2019-03-28T21:27:06.846Z,6.57
2019-03-28T21:29:48.360Z,6.40
2019-03-28T21:32:07.393Z,7.03
2019-03-28T21:34:46.862Z,8.20
2019-03-28T21:37:16.995Z,6.43
2019-03-28T21:39:47.527Z,9.47
2019-03-28T21:42:16.772Z,7.27
2019-03-28T21:44:58.420Z,10.50
2019-03-28T21:47:30.384Z,6.60
2019-03-28T21:50:00.989Z,7.80
2019-03-28T21:52:30.460Z,6.30
2019-03-28T21:55:11.386Z,6.13
2019-03-28T21:57:42.495Z,7.20
2019-03-28T22:00:11.493Z,7.10
2019-03-28T22:02:41.045Z,6.87
2019-03-28T22:05:19.491Z,9.27
2019-03-28T22:07:48.886Z,7.60
2019-03-28T22:10:18.296Z,7.57
2019-03-28T22:12:50.186Z,7.30
2019-03-28T22:15:28.772Z,6.50
2019-03-28T22:18:00.192Z,8.20
2019-03-28T22:20:29.464Z,10.00
2019-03-28T22:22:58.748Z,8.83
2019-03-28T22:25:37.215Z,7.37
2019-03-28T22:28:06.478Z,7.83
2019-03-28T22:30:36.013Z,6.07
2019-03-28T22:33:06.434Z,8.33
2019-03-28T22:35:44.931Z,9.50
2019-03-28T22:38:14.466Z,10.37
2019-03-28T22:40:44.076Z,8.20
2019-03-28T22:43:13.633Z,8.07
2019-03-28T22:45:52.248Z,9.53
2019-03-28T22:48:21.518Z,9.87
2019-03-28T22:50:50.756Z,11.07
2019-03-28T22:53:20.170Z,8.50
2019-03-28T22:58:24.399Z,9.60
2019-03-28T23:00:54.543Z,9.33
2019-03-28T23:03:23.757Z,7.97
2019-03-28T23:06:02.579Z,6.90
2019-03-28T23:08:33.386Z,7.63
2019-03-28T23:11:02.660Z,6.80
2019-03-28T23:13:31.900Z,10.10
2019-03-28T23:16:10.217Z,7.87
2019-03-28T23:18:39.981Z,10.43
2019-03-28T23:21:09.572Z,7.67
2019-03-28T23:23:39.101Z,9.70
2019-03-28T23:26:18.718Z,7.67
2019-03-28T23:28:48.148Z,10.53
2019-03-28T23:31:18.928Z,9.30
2019-03-28T23:33:49.482Z,8.97
2019-03-28T23:36:34.175Z,9.60
2019-03-28T23:39:04.676Z,7.23
2019-03-28T23:41:34.397Z,7.53
2019-03-28T23:44:03.818Z,10.57
2019-03-28T23:46:42.199Z,7.63
2019-03-28T23:49:11.788Z,10.10
2019-03-28T23:51:51.344Z,10.20
2019-03-28T23:54:22.949Z,8.10
2019-03-28T23:56:52.320Z,8.27
2019-03-28T23:59:21.597Z,7.73
